Time;durP1;ratioP1;P1;durP2;ratioP2;P2;SDS_P1;SDS_P2;PMS_P1;PMS_P2;Temp;Humidity;BMP_temperature;BMP_pressure;BME280_temperature;BME280_humidity;BME280_pressure;Samples;Min_cycle;Max_cycle;Signal;HPM_P1;HPM_P2
2021/06/01 05:07:31;;;;;;;9.10;3.08;;;;;;;22.27;39.25;98771.16;1721076;81;21610;-57
2021/06/01 05:10:02;;;;;;;8.00;2.72;;;;;;;22.26;38.04;98769.02;1754662;80;21028;-56
2021/06/01 05:12:30;;;;;;;5.37;2.92;;;;;;;21.95;38.26;98769.05;1754773;80;21043;-59
2021/06/01 05:15:00;;;;;;;8.28;3.50;;;;;;;21.64;39.19;98772.03;1751978;81;21040;-59
2021/06/01 05:17:29;;;;;;;7.60;3.25;;;;;;;21.57;39.42;98770.77;1751830;80;21090;-58
2021/06/01 05:19:58;;;;;;;7.37;3.62;;;;;;;21.53;39.86;98779.91;1759156;80;21048;-65
2021/06/01 05:22:25;;;;;;;9.73;3.22;;;;;;;21.56;40.17;98779.33;1776426;79;21044;-54
2021/06/01 05:24:53;;;;;;;7.67;3.20;;;;;;;21.70;41.19;98776.27;1749883;82;21087;-55
2021/06/01 05:27:21;;;;;;;13.70;3.22;;;;;;;21.98;39.68;98778.69;1740596;82;21040;-55
2021/06/01 05:29:55;;;;;;;6.47;2.90;;;;;;;22.00;38.78;98781.87;1754259;81;21036;-56
2021/06/01 05:33:11;;;;;;;6.47;2.98;;;;;;;21.80;39.34;98778.61;1753901;82;21056;-57
2021/06/01 05:34:58;;;;;;;8.15;3.17;;;;;;;21.57;39.78;98780.95;1732056;82;21059;-53
2021/06/01 05:37:20;;;;;;;7.33;2.70;;;;;;;21.33;39.83;98783.53;1736693;80;21056;-54
2021/06/01 05:39:47;;;;;;;6.08;2.92;;;;;;;21.14;39.94;98791.95;1755152;80;21033;-54
2021/06/01 05:42:16;;;;;;;5.22;2.98;;;;;;;21.00;39.44;98785.62;1752309;80;21063;-55
2021/06/01 05:44:47;;;;;;;6.08;3.27;;;;;;;20.86;40.22;98796.94;1737826;82;20999;-58
2021/06/01 05:47:18;;;;;;;9.30;2.90;;;;;;;20.67;40.67;98798.65;1745566;82;21037;-56
2021/06/01 05:49:45;;;;;;;8.83;2.95;;;;;;;20.49;41.26;98800.60;1748494;82;21029;-56
2021/06/01 05:52:13;;;;;;;5.75;3.05;;;;;;;20.36;40.76;98799.28;1744555;82;21050;-56
2021/06/01 05:54:41;;;;;;;7.03;3.00;;;;;;;20.14;40.94;98810.31;1754321;81;21032;-54
2021/06/01 05:57:10;;;;;;;10.82;3.70;;;;;;;20.04;41.63;98802.30;1754501;80;21008;-56
2021/06/01 05:59:37;;;;;;;8.30;3.10;;;;;;;19.99;42.29;98804.44;1747367;80;21490;-58
2021/06/01 06:02:06;;;;;;;7.78;3.37;;;;;;;19.99;41.68;98799.63;1758091;80;21083;-56
2021/06/01 06:04:33;;;;;;;5.70;3.22;;;;;;;19.94;42.02;98802.31;1763145;81;21538;-57
2021/06/01 06:07:01;;;;;;;13.83;4.20;;;;;;;19.84;42.11;98799.93;1766130;80;21613;-56
2021/06/01 06:09:29;;;;;;;7.92;3.50;;;;;;;19.79;43.34;98795.13;1730648;83;21062;-55
2021/06/01 06:11:58;;;;;;;4.78;2.90;;;;;;;19.82;42.81;98795.37;1731935;83;21561;-56
2021/06/01 06:14:26;;;;;;;6.87;3.22;;;;;;;19.76;43.23;98796.44;1730693;83;21066;-55
2021/06/01 06:17:10;;;;;;;12.85;3.67;;;;;;;19.88;43.14;98798.84;1786942;79;21049;-57
2021/06/01 06:19:43;;;;;;;6.00;2.77;;;;;;;19.94;43.10;98791.06;1780349;80;21516;-56
2021/06/01 06:22:08;;;;;;;9.10;2.70;;;;;;;19.96;42.26;98794.83;1779232;80;21025;-56
2021/06/01 06:24:36;;;;;;;4.45;2.77;;;;;;;19.46;41.81;98801.78;1779551;80;21093;-55
2021/06/01 06:27:04;;;;;;;5.90;2.90;;;;;;;18.86;42.29;98805.39;1777386;79;21438;-58
2021/06/01 06:29:32;;;;;;;7.65;3.00;;;;;;;18.49;43.07;98794.83;1792173;79;21509;-57
2021/06/01 06:32:05;;;;;;;4.95;2.70;;;;;;;18.57;44.11;98803.13;1776616;79;21046;-54
2021/06/01 06:34:32;;;;;;;3.77;2.80;;;;;;;18.85;44.23;98794.45;1759080;81;21034;-54
2021/06/01 06:37:00;;;;;;;10.18;2.80;;;;;;;19.18;43.18;98801.74;1759672;81;21071;-56
2021/06/01 06:39:28;;;;;;;8.53;2.50;;;;;;;19.25;42.71;98797.73;1759812;81;21125;-55
2021/06/01 06:41:56;;;;;;;7.28;2.90;;;;;;;19.26;42.29;98793.98;1710920;81;21583;-55
2021/06/01 06:44:23;;;;;;;7.20;2.70;;;;;;;19.08;42.83;98798.51;1728503;83;21027;-55
2021/06/01 06:47:16;;;;;;;10.53;2.77;;;;;;;18.68;42.97;98809.88;1758283;81;21047;-56
2021/06/01 06:49:33;;;;;;;6.87;2.90;;;;;;;18.42;43.61;98805.75;1724666;83;21043;-54
2021/06/01 06:52:01;;;;;;;6.53;2.55;;;;;;;18.33;43.25;98803.29;1745313;81;21027;-56
2021/06/01 06:54:29;;;;;;;5.97;2.80;;;;;;;18.26;43.66;98794.19;1799256;80;21047;-54
2021/06/01 06:56:57;;;;;;;5.78;3.00;;;;;;;18.36;43.97;98799.31;1798619;80;21040;-60
2021/06/01 06:59:25;;;;;;;5.78;2.75;;;;;;;18.46;43.63;98808.14;1798016;78;21594;-56
2021/06/01 07:01:52;;;;;;;7.10;2.72;;;;;;;18.18;43.95;98796.53;1783476;79;21052;-56
2021/06/01 07:04:20;;;;;;;6.47;2.30;;;;;;;17.97;45.18;98797.76;1723861;83;21588;-57
2021/06/01 07:06:48;;;;;;;5.83;2.40;;;;;;;17.76;43.96;98821.33;1729851;83;21616;-59
2021/06/01 07:09:16;;;;;;;5.40;2.65;;;;;;;17.31;44.24;98802.53;1720028;82;21046;-57
2021/06/01 07:11:45;;;;;;;7.47;3.30;;;;;;;16.81;45.50;98811.63;1746752;80;21519;-56
2021/06/01 07:14:20;;;;;;;6.35;2.65;;;;;;;16.39;46.82;98814.78;1765007;81;21086;-57
2021/06/01 07:16:49;;;;;;;8.30;2.60;;;;;;;16.04;46.95;98805.00;1748430;79;21552;-56
2021/06/01 07:19:17;;;;;;;11.43;2.85;;;;;;;15.86;47.45;98818.83;1774942;81;21027;-60
2021/06/01 07:21:45;;;;;;;10.13;2.80;;;;;;;15.65;47.41;98804.94;1773913;81;21079;-58
2021/06/01 07:24:13;;;;;;;9.83;3.08;;;;;;;15.39;48.46;98827.08;1769671;81;21514;-59
2021/06/01 07:26:42;;;;;;;3.15;2.65;;;;;;;15.17;48.68;98804.11;1744292;82;21572;-56
2021/06/01 07:29:10;;;;;;;5.37;2.80;;;;;;;14.90;49.58;98807.33;1733194;82;21151;-57
2021/06/01 07:31:37;;;;;;;4.80;2.65;;;;;;;14.78;50.86;98802.06;1734999;79;21077;-57
2021/06/01 07:34:05;;;;;;;11.15;2.80;;;;;;;14.80;51.39;98803.97;1800921;78;21085;-59
2021/06/01 07:36:33;;;;;;;9.98;3.30;;;;;;;15.10;51.18;98810.89;1740020;81;21088;-56
2021/06/01 07:39:01;;;;;;;8.85;3.10;;;;;;;15.44;48.83;98791.83;1753890;81;21077;-56
2021/06/01 07:41:29;;;;;;;4.80;2.87;;;;;;;15.82;48.41;98797.77;1805796;78;21061;-52
2021/06/01 07:44:02;;;;;;;12.00;2.83;;;;;;;16.13;45.93;98798.22;1781596;78;21041;-60
2021/06/01 07:46:26;;;;;;;8.50;2.70;;;;;;;16.33;45.63;98801.14;1780932;80;21053;-57
2021/06/01 07:48:56;;;;;;;8.63;2.70;;;;;;;16.60;46.14;98788.45;1780974;80;21092;-57
2021/06/01 07:51:29;;;;;;;5.22;2.65;;;;;;;16.81;46.83;98796.98;1749529;80;21029;-56
2021/06/01 07:54:04;;;;;;;6.65;3.05;;;;;;;16.94;46.87;98793.92;1785154;79;21058;-57
2021/06/01 07:56:32;;;;;;;6.97;2.77;;;;;;;16.87;46.64;98792.52;1781076;80;21048;-59
2021/06/01 07:59:00;;;;;;;8.63;2.50;;;;;;;16.59;48.02;98792.97;1781319;78;21045;-57
2021/06/01 08:01:27;;;;;;;7.00;2.47;;;;;;;16.36;48.01;98799.33;1781315;80;21540;-58
2021/06/01 08:03:56;;;;;;;9.45;2.60;;;;;;;16.10;45.62;98792.86;1794092;79;21556;-59
2021/06/01 08:06:25;;;;;;;7.28;2.85;;;;;;;15.95;46.10;98790.53;1792183;77;21081;-58
2021/06/01 08:08:54;;;;;;;8.33;3.08;;;;;;;15.93;46.42;98788.89;1803935;77;21057;-60
2021/06/01 08:11:21;;;;;;;10.63;3.17;;;;;;;16.02;47.96;98784.51;1811445;77;21037;-57
2021/06/01 08:13:49;;;;;;;5.60;2.70;;;;;;;16.09;48.36;98780.61;1768786;79;21627;-57
2021/06/01 08:16:17;;;;;;;9.18;2.60;;;;;;;16.23;46.88;98787.73;1748328;82;21554;-58
2021/06/01 08:19:00;;;;;;;4.33;2.30;;;;;;;16.35;44.89;98787.62;1761423;81;21063;-59
2021/06/01 08:21:24;;;;;;;4.78;2.55;;;;;;;16.37;45.72;98790.30;1794883;79;21045;-56
2021/06/01 08:23:46;;;;;;;11.33;2.85;;;;;;;16.26;44.51;98794.41;1797208;78;21049;-58
2021/06/01 08:26:14;;;;;;;8.13;2.65;;;;;;;15.99;44.54;98792.95;1742101;82;21043;-66
2021/06/01 08:28:42;;;;;;;7.28;2.65;;;;;;;15.68;45.28;98791.18;1771111;78;21066;-57
2021/06/01 08:31:11;;;;;;;11.40;3.12;;;;;;;15.64;46.94;98796.69;1770306;78;21095;-60
2021/06/01 08:33:38;;;;;;;9.43;3.05;;;;;;;15.76;47.07;98793.42;1792956;78;21058;-58
2021/06/01 08:36:07;;;;;;;5.35;2.35;;;;;;;15.89;45.65;98796.30;1787360;80;21045;-56
2021/06/01 08:38:34;;;;;;;6.70;2.75;;;;;;;15.99;46.18;98784.45;1795767;79;21284;-55
2021/06/01 08:41:02;;;;;;;10.05;3.08;;;;;;;16.16;46.07;98783.89;1757663;81;20999;-56
2021/06/01 08:43:32;;;;;;;9.55;2.62;;;;;;;16.19;46.33;98795.39;1806933;79;20993;-58
2021/06/01 08:45:59;;;;;;;6.08;2.60;;;;;;;16.03;46.83;98798.08;1753031;80;21098;-57
2021/06/01 08:48:29;;;;;;;6.92;2.62;;;;;;;15.86;47.24;98805.55;1774490;80;21029;-60
2021/06/01 08:50:56;;;;;;;6.50;2.37;;;;;;;15.78;47.04;98783.38;1788034;79;21083;-58
2021/06/01 08:53:24;;;;;;;7.50;2.52;;;;;;;15.78;46.00;98783.90;1792173;80;21101;-56
2021/06/01 08:55:54;;;;;;;8.93;3.60;;;;;;;15.75;46.15;98791.02;1801206;80;21133;-59
2021/06/01 08:58:22;;;;;;;8.10;3.05;;;;;;;15.76;47.69;98777.47;1839093;77;21516;-57
2021/06/01 09:00:51;;;;;;;7.37;2.70;;;;;;;15.83;47.27;98778.66;1771150;80;21061;-55
2021/06/01 09:03:22;;;;;;;9.53;2.80;;;;;;;15.95;46.95;98787.87;1821741;79;21065;-56
2021/06/01 09:09:00;;;;;;;7.67;2.70;;;;;;;16.07;46.79;98788.05;1760931;81;21049;-58
2021/06/01 09:11:35;;;;;;;6.70;2.62;;;;;;;16.24;47.12;98793.85;1760147;81;21585;-58
2021/06/01 09:22:04;;;;;;;9.90;2.85;;;;;;;16.36;45.71;98795.34;1770469;80;21603;-56
2021/06/01 09:24:33;;;;;;;4.33;2.35;;;;;;;16.21;45.80;98791.14;1832687;78;21560;-56
2021/06/01 09:27:07;;;;;;;9.43;2.80;;;;;;;16.04;45.34;98791.17;1832564;78;21074;-57
2021/06/01 09:29:33;;;;;;;10.08;2.65;;;;;;;15.89;45.77;98786.98;1785684;80;21029;-56
2021/06/01 09:32:18;;;;;;;5.12;3.12;;;;;;;15.83;45.62;98794.08;1809577;77;21001;-57
2021/06/01 09:34:54;;;;;;;8.73;3.22;;;;;;;15.74;46.08;98796.85;1788923;79;21054;-65
2021/06/01 09:37:33;;;;;;;7.53;3.00;;;;;;;15.79;46.97;98786.30;1839044;78;21013;-63
2021/06/01 09:40:11;;;;;;;11.90;3.40;;;;;;;15.95;47.36;98793.19;1760636;81;21041;-66
2021/06/01 09:42:44;;;;;;;5.70;2.92;;;;;;;16.13;46.76;98788.92;1840672;78;21026;-59
2021/06/01 09:45:17;;;;;;;6.25;2.67;;;;;;;16.26;45.76;98791.21;1840404;78;21065;-60
2021/06/01 09:47:59;;;;;;;7.12;2.90;;;;;;;16.38;45.77;98791.10;1761597;81;21075;-57
2021/06/01 09:50:38;;;;;;;7.65;2.77;;;;;;;16.53;43.98;98779.33;1840404;78;21022;-55
2021/06/01 09:53:08;;;;;;;6.12;2.42;;;;;;;16.63;41.87;98771.97;1761751;81;21076;-55
2021/06/01 09:55:44;;;;;;;4.62;2.72;;;;;;;16.65;43.02;98792.50;1840647;77;21514;-56
2021/06/01 09:58:15;;;;;;;9.13;2.50;;;;;;;16.80;42.99;98778.58;1769974;80;21029;-56
2021/06/01 10:00:44;;;;;;;6.25;2.17;;;;;;;16.96;39.55;98794.46;1832584;78;21042;-56
2021/06/01 10:03:25;;;;;;;5.47;2.20;;;;;;;16.99;39.87;98797.97;1832019;78;21033;-56
2021/06/01 10:05:44;;;;;;;6.10;2.27;;;;;;;16.95;38.82;98791.53;1827021;78;21046;-54
2021/06/01 10:08:18;;;;;;;5.80;2.27;;;;;;;16.80;40.27;98794.55;1832003;78;21525;-56
2021/06/01 10:10:55;;;;;;;7.20;2.35;;;;;;;16.70;42.51;98791.23;1820396;78;21048;-55
2021/06/01 10:13:24;;;;;;;4.83;2.45;;;;;;;16.66;42.86;98800.76;1797466;77;21027;-60
2021/06/01 10:15:54;;;;;;;7.70;2.33;;;;;;;16.62;43.06;98815.61;1809241;79;21065;-56
2021/06/01 10:18:22;;;;;;;7.72;2.67;;;;;;;16.58;43.29;98791.36;1733664;82;21037;-58
2021/06/01 10:20:51;;;;;;;5.50;2.65;;;;;;;16.59;41.66;98801.48;1733123;82;21132;-56
2021/06/01 10:23:30;;;;;;;8.70;2.60;;;;;;;16.53;42.12;98794.48;1765562;81;21054;-57
2021/06/01 10:25:54;;;;;;;7.65;2.85;;;;;;;16.46;42.99;98786.70;1770416;81;21013;-54
2021/06/01 10:28:32;;;;;;;4.42;2.40;;;;;;;16.45;42.42;98786.39;1733118;83;21075;-54
2021/06/01 10:30:56;;;;;;;10.13;2.70;;;;;;;16.43;43.33;98790.64;1756645;80;21579;-55
2021/06/01 10:33:26;;;;;;;12.58;2.92;;;;;;;16.39;42.19;98799.35;1763344;81;21107;-55
2021/06/01 10:36:05;;;;;;;4.53;2.33;;;;;;;16.25;43.22;98780.30;1761266;81;21012;-54
2021/06/01 10:42:31;;;;;;;8.58;2.40;;;;;;;16.16;44.41;98772.45;1812668;78;21069;-54
2021/06/01 10:53:20;;;;;;;3.33;2.40;;;;;;;16.24;43.07;98777.89;1798345;79;21111;-54
2021/06/01 10:56:05;;;;;;;6.97;2.40;;;;;;;16.21;43.15;98780.50;1729894;82;21089;-59
2021/06/01 10:58:43;;;;;;;4.85;2.50;;;;;;;16.15;43.92;98790.27;1775120;79;22349;-56
2021/06/01 11:09:47;;;;;;;6.20;2.40;;;;;;;15.10;47.87;98781.17;1807231;78;21061;-57
2021/06/01 11:12:22;;;;;;;5.83;2.60;;;;;;;14.87;48.49;98786.05;1811330;78;21097;-57
2021/06/01 11:14:58;;;;;;;7.28;2.70;;;;;;;14.69;49.09;98786.77;1811213;79;21296;-57
2021/06/01 11:34:18;;;;;;;6.45;3.05;;;;;;;15.08;50.03;98766.01;1746793;82;21142;-54
2021/06/01 11:36:46;;;;;;;4.22;2.70;;;;;;;15.28;49.71;98764.73;1736362;82;21113;-54
2021/06/01 11:39:45;;;;;;;13.53;3.50;;;;;;;15.46;49.22;98769.81;1734839;82;21037;-54
2021/06/01 11:45:01;;;;;;;6.37;3.25;;;;;;;15.86;48.59;98774.97;1734407;82;21580;-53
2021/06/01 11:47:41;;;;;;;8.68;3.77;;;;;;;15.95;46.56;98768.73;1733422;82;20990;-54
2021/06/01 11:52:59;;;;;;;9.50;2.98;;;;;;;15.92;46.43;98777.98;1736766;82;21053;-52
2021/06/01 11:55:27;;;;;;;5.65;3.00;;;;;;;15.81;46.12;98780.21;1717050;82;21021;-56
2021/06/01 12:04:09;;;;;;;;;;;;;;;15.61;43.90;98773.24;1740325;82;21091;-51
2021/06/01 12:18:14;;;;;;;7.00;2.40;;;;;;;15.72;44.27;98780.88;1746623;82;21091;-55
2021/06/01 12:20:39;;;;;;;6.78;2.75;;;;;;;15.73;44.31;98773.98;1733948;82;21111;-51
2021/06/01 12:23:42;;;;;;;5.92;2.47;;;;;;;15.78;44.39;98785.23;1723769;82;21590;-52
2021/06/01 12:26:30;;;;;;;5.40;2.35;;;;;;;15.88;44.77;98770.20;1727299;82;21092;-53
2021/06/01 12:32:27;;;;;;;7.58;2.50;;;;;;;16.22;45.71;98770.67;1760591;81;21085;-51
2021/06/01 12:43:51;;;;;;;4.10;2.58;;;;;;;16.05;45.11;98773.36;1703443;83;21349;-54
2021/06/01 13:07:31;;;;;;;4.03;2.70;;;;;;;16.16;45.06;98748.52;1746717;81;21594;-50
2021/06/01 13:12:19;;;;;;;10.08;3.00;;;;;;;16.34;44.61;98754.86;1753045;81;21058;-50
2021/06/01 13:20:39;;;;;;;8.40;2.75;;;;;;;16.26;45.77;98765.14;1760567;80;21695;-51
2021/06/01 13:46:14;;;;;;;11.97;2.90;;;;;;;16.25;42.00;98757.70;1762353;81;21080;-47
2021/06/01 13:56:37;;;;;;;7.95;2.92;;;;;;;16.20;43.64;98753.11;1713944;83;21104;-54
